createdAt,value
2016-05-25T00:00:12.485Z,89.04
2016-05-25T00:01:12.488Z,89.42
2016-05-25T00:02:12.411Z,89.42
2016-05-25T00:03:12.368Z,89.04
2016-05-25T00:04:12.339Z,89.42
2016-05-25T00:05:12.311Z,88.94
2016-05-25T00:06:12.267Z,89.51
2016-05-25T00:07:12.238Z,89.51
2016-05-25T00:08:12.210Z,89.32
2016-05-25T00:09:12.181Z,89.61
2016-05-25T00:10:12.121Z,90.18
2016-05-25T00:11:12.093Z,90.47
2016-05-25T00:12:12.063Z,89.99
2016-05-25T00:13:12.035Z,90.37
2016-05-25T00:14:11.991Z,89.99
2016-05-25T00:15:11.962Z,90.94
2016-05-25T00:16:11.935Z,90.75
2016-05-25T00:17:11.890Z,90.56
2016-05-25T00:18:11.846Z,90.56
2016-05-25T00:19:11.817Z,90.47
2016-05-25T00:20:11.789Z,90.66
2016-05-25T00:21:11.745Z,90.75
2016-05-25T00:22:11.715Z,91.13
2016-05-25T00:23:11.672Z,90.56
2016-05-25T00:24:11.643Z,90.66
2016-05-25T00:25:11.599Z,91.13
2016-05-25T00:26:11.570Z,91.03
2016-05-25T00:27:11.526Z,90.56
2016-05-25T00:28:11.498Z,90.94
2016-05-25T00:29:11.470Z,91.03
2016-05-25T00:30:11.425Z,90.75
2016-05-25T00:31:11.397Z,90.66
2016-05-25T00:32:11.352Z,90.66
2016-05-25T00:33:11.324Z,90.75
2016-05-25T00:34:11.295Z,91.03
2016-05-25T00:35:11.250Z,90.56
2016-05-25T00:36:11.222Z,90.84
2016-05-25T00:37:11.177Z,91.22
2016-05-25T00:38:11.150Z,91.13
2016-05-25T00:39:11.106Z,91.03
2016-05-25T00:40:11.077Z,91.13
2016-05-25T00:41:11.049Z,91.13
2016-05-25T00:42:11.004Z,90.56
2016-05-25T00:43:10.976Z,90.47
2016-05-25T00:44:10.946Z,90.56
2016-05-25T00:45:10.902Z,90.94
2016-05-25T00:46:11.077Z,90.84
2016-05-25T00:47:10.830Z,90.75
2016-05-25T00:48:10.802Z,90.37
2016-05-25T00:49:10.757Z,90.75
2016-05-25T00:50:10.729Z,90.66
2016-05-25T00:51:10.684Z,90.66
2016-05-25T00:52:10.656Z,90.66
2016-05-25T00:53:10.628Z,90.47
2016-05-25T00:54:10.583Z,90.66
2016-05-25T00:55:10.555Z,90.75
2016-05-25T00:56:10.511Z,90.61
2016-05-25T00:57:10.497Z,91.22
2016-05-25T00:58:10.453Z,90.99
2016-05-25T00:59:10.409Z,90.61
2016-05-25T01:00:10.381Z,90.61
2016-05-25T01:01:10.367Z,90.8
2016-05-25T01:02:10.308Z,91.18
2016-05-25T01:03:10.264Z,90.8
2016-05-25T01:04:10.235Z,90.99
2016-05-25T01:05:10.206Z,90.7
2016-05-25T01:06:10.162Z,90.89
2016-05-25T01:07:10.133Z,91.37
2016-05-25T01:08:10.089Z,91.66
2016-05-25T01:09:10.061Z,91.28
2016-05-25T01:10:10.033Z,91.08
2016-05-25T01:11:09.988Z,91.18
2016-05-25T01:12:09.960Z,90.89
2016-05-25T01:13:09.915Z,91.28
2016-05-25T01:14:09.887Z,91.75
2016-05-25T01:15:09.843Z,91.94
2016-05-25T01:16:09.814Z,91.56
2016-05-25T01:17:09.785Z,91.85
2016-05-25T01:18:09.741Z,91.75
2016-05-25T01:19:09.713Z,92.03
2016-05-25T01:20:09.684Z,92.03
2016-05-25T01:21:09.640Z,92.08
2016-05-25T01:22:09.596Z,91.94
2016-05-25T01:23:09.567Z,92.18
2016-05-25T01:24:09.523Z,92.46
2016-05-25T01:25:09.495Z,92.03
2016-05-25T01:26:09.466Z,92.27
2016-05-25T01:27:09.423Z,92.46
2016-05-25T01:28:09.393Z,93.04
2016-05-25T01:29:09.350Z,92.75
2016-05-25T01:30:09.320Z,92.66
2016-05-25T01:31:09.651Z,92.94
2016-05-25T01:32:09.248Z,93.23
2016-05-25T01:33:09.219Z,92.85
2016-05-25T01:34:09.175Z,93.04
2016-05-25T01:35:09.147Z,93.51
2016-05-25T01:36:09.118Z,93.6
2016-05-25T01:37:09.074Z,93.41
2016-05-25T01:38:09.029Z,93.41
2016-05-25T01:39:09.001Z,93.89
2016-05-25T01:40:08.958Z,93.6
2016-05-25T01:41:08.928Z,93.41
2016-05-25T01:42:08.900Z,93.41
2016-05-25T01:43:08.855Z,93.41
2016-05-25T01:44:08.827Z,93.99
2016-05-25T01:45:08.783Z,93.89
2016-05-25T01:46:08.754Z,93.79
2016-05-25T01:47:08.741Z,93.79
2016-05-25T01:48:08.682Z,93.51
2016-05-25T01:49:08.638Z,93.79
2016-05-25T01:50:08.609Z,93.6
2016-05-25T01:51:08.595Z,93.7
2016-05-25T01:52:08.552Z,94.08
2016-05-25T01:53:08.507Z,93.79
2016-05-25T01:54:08.479Z,94.46
2016-05-25T01:55:08.434Z,94.37
2016-05-25T01:56:08.390Z,94.27
2016-05-25T01:57:08.346Z,94.65
2016-05-25T01:58:08.317Z,94.56
2016-05-25T01:59:08.273Z,94.65
2016-05-25T02:00:08.261Z,94.65
2016-05-25T02:01:08.232Z,94.18
2016-05-25T02:02:08.173Z,94.27
2016-05-25T02:03:08.144Z,94.18
2016-05-25T02:04:08.100Z,93.99
2016-05-25T02:05:08.071Z,93.99
2016-05-25T02:06:08.027Z,94.27
2016-05-25T02:07:07.998Z,93.79
2016-05-25T02:08:07.954Z,94.27
2016-05-25T02:09:07.925Z,94.18
2016-05-25T02:10:07.881Z,94.08
2016-05-25T02:11:07.853Z,94.18
2016-05-25T02:12:07.809Z,94.13
2016-05-25T02:13:07.780Z,94.27
2016-05-25T02:14:07.736Z,94.51
2016-05-25T02:15:07.723Z,94.6
2016-05-25T02:16:07.679Z,94.79
2016-05-25T02:17:07.634Z,94.51
2016-05-25T02:18:07.606Z,94.89
2016-05-25T02:19:07.577Z,94.79
2016-05-25T02:20:07.533Z,94.89
2016-05-25T02:21:07.489Z,94.42
2016-05-25T02:22:07.460Z,94.7
2016-05-25T02:23:07.416Z,94.32
2016-05-25T02:24:07.388Z,94.6
2016-05-25T02:25:07.359Z,95.08
2016-05-25T02:26:07.315Z,94.6
2016-05-25T02:27:07.270Z,94.89
2016-05-25T02:28:07.242Z,94.6
2016-05-25T02:29:07.197Z,94.51
2016-05-25T02:30:07.169Z,94.42
2016-05-25T02:31:07.125Z,94.6
2016-05-25T02:32:07.097Z,94.42
2016-05-25T02:33:07.053Z,94.42
2016-05-25T02:34:07.025Z,94.42
2016-05-25T02:35:06.980Z,94.42
2016-05-25T02:36:06.951Z,94.13
2016-05-25T02:37:06.922Z,94.23
2016-05-25T02:38:06.878Z,94.23
2016-05-25T02:39:06.849Z,94.23
2016-05-25T02:40:06.806Z,94.13
2016-05-25T02:41:06.777Z,94.7
2016-05-25T02:42:06.733Z,94.42
2016-05-25T02:43:06.705Z,94.89
2016-05-25T02:44:06.660Z,94.42
2016-05-25T02:45:06.632Z,94.51
2016-05-25T02:46:06.588Z,94.51
2016-05-25T02:47:06.574Z,94.79
2016-05-25T02:48:06.515Z,94.7
2016-05-25T02:49:06.485Z,94.51
2016-05-25T02:50:06.457Z,94.89
2016-05-25T02:51:06.414Z,94.89
2016-05-25T02:52:06.384Z,94.89
2016-05-25T02:53:06.341Z,95.08
2016-05-25T02:54:06.296Z,95.08
2016-05-25T02:55:06.268Z,94.79
2016-05-25T02:56:06.224Z,95.08
2016-05-25T02:57:06.195Z,94.98
2016-05-25T02:58:06.151Z,94.42
2016-05-25T02:59:06.122Z,94.51
2016-05-25T03:00:06.078Z,94.98
2016-05-25T03:01:06.065Z,94.7
2016-05-25T03:02:06.006Z,95.08
2016-05-25T03:03:05.992Z,94.89
2016-05-25T03:04:05.948Z,95.08
2016-05-25T03:05:05.903Z,94.98
2016-05-25T03:06:05.876Z,94.7
2016-05-25T03:07:05.831Z,95.17
2016-05-25T03:08:05.803Z,94.98
2016-05-25T03:09:05.758Z,95.08
2016-05-25T03:10:05.714Z,95.17
2016-05-25T03:11:05.685Z,95.08
2016-05-25T03:12:05.658Z,95.03
2016-05-25T03:13:05.613Z,95.08
2016-05-25T03:14:05.585Z,94.74
2016-05-25T03:15:05.555Z,94.65
2016-05-25T03:16:05.512Z,95.03
2016-05-25T03:17:05.468Z,95.03
2016-05-25T03:18:05.439Z,94.93
2016-05-25T03:19:05.395Z,94.7
2016-05-25T03:20:05.366Z,94.56
2016-05-25T03:21:05.322Z,94.46
2016-05-25T03:22:05.279Z,94.65
2016-05-25T03:23:05.249Z,95.03
2016-05-25T03:24:05.221Z,95.41
2016-05-25T03:25:05.177Z,95.22
2016-05-25T03:26:05.133Z,94.93
2016-05-25T03:27:05.104Z,95.12
2016-05-25T03:28:05.060Z,94.84
2016-05-25T03:29:05.031Z,95.22
2016-05-25T03:30:04.987Z,95.41
2016-05-25T03:31:04.959Z,95.12
2016-05-25T03:32:04.945Z,95.31
2016-05-25T03:33:04.886Z,95.22
2016-05-25T03:34:04.842Z,95.7
2016-05-25T03:35:04.828Z,95.51
2016-05-25T03:36:04.766Z,95.12
2016-05-25T03:37:04.737Z,95.31
2016-05-25T03:38:04.694Z,95.31
2016-05-25T03:39:04.664Z,95.98
2016-05-25T03:40:04.620Z,95.98
2016-05-25T03:41:04.592Z,95.79
2016-05-25T03:42:04.563Z,96.26
2016-05-25T03:44:04.475Z,96.36
2016-05-25T03:45:04.446Z,96.17
2016-05-25T03:46:04.402Z,96.08
2016-05-25T03:47:04.374Z,95.79
2016-05-25T03:48:04.346Z,95.89
2016-05-25T03:49:04.302Z,95.51
2016-05-25T03:50:04.272Z,95.79
2016-05-25T03:51:04.229Z,95.89
2016-05-25T03:52:04.184Z,95.36
2016-05-25T03:53:04.155Z,95.93
2016-05-25T03:54:04.112Z,96.03
2016-05-25T03:55:04.082Z,95.93
2016-05-25T03:56:04.039Z,95.74
2016-05-25T03:57:03.995Z,95.74
2016-05-25T03:58:03.966Z,96.45
2016-05-25T03:59:03.922Z,95.74
2016-05-25T04:00:03.894Z,96.36
2016-05-25T04:01:03.849Z,96.64
2016-05-25T04:02:03.820Z,96.55
2016-05-25T04:03:03.777Z,96.22
2016-05-25T04:04:03.764Z,96.55
2016-05-25T04:05:03.704Z,96.26
2016-05-25T04:06:03.676Z,96.26
2016-05-25T04:07:03.647Z,96.83
2016-05-25T04:08:03.602Z,96.26
2016-05-25T04:09:03.559Z,96.74
2016-05-25T04:10:03.530Z,96.64
2016-05-25T04:11:03.486Z,96.55
2016-05-25T04:12:03.456Z,96.64
2016-05-25T04:13:03.413Z,96.64
2016-05-25T04:14:03.384Z,96.83
2016-05-25T04:15:03.340Z,97.22
2016-05-25T04:16:03.452Z,97.22
2016-05-25T04:17:03.470Z,96.74
2016-05-25T04:18:03.238Z,97.17
2016-05-25T04:19:03.194Z,97.5
2016-05-25T04:20:03.189Z,97.36
2016-05-25T04:21:03.169Z,97.45
2016-05-25T04:22:03.164Z,97.36
2016-05-25T04:23:03.144Z,97.36
2016-05-25T04:24:03.154Z,97.17
2016-05-25T04:25:03.103Z,97.27
2016-05-25T04:26:03.084Z,97.27
2016-05-25T04:27:03.048Z,96.79
2016-05-25T04:28:03.027Z,96.98
2016-05-25T04:29:03.007Z,96.6
2016-05-25T04:30:02.966Z,96.79
2016-05-25T04:31:02.941Z,96.5
2016-05-25T04:32:02.900Z,96.93
2016-05-25T04:33:02.874Z,96.5
2016-05-25T04:34:02.849Z,96.36
2016-05-25T04:35:04.681Z,96.65
2016-05-25T04:36:02.762Z,96.65
2016-05-25T04:37:02.736Z,96.65
2016-05-25T04:38:02.692Z,95.75
2016-05-25T04:39:02.666Z,96.03
2016-05-25T04:40:03.747Z,95.36
2016-05-25T04:41:02.592Z,94.93
2016-05-25T04:42:02.565Z,94.18
2016-05-25T04:43:02.521Z,93.32
2016-05-25T04:44:02.492Z,92.13
2016-05-25T04:45:02.465Z,91.37
2016-05-25T04:46:02.420Z,90.75
2016-05-25T04:47:02.532Z,89.79
2016-05-25T04:48:02.363Z,88.46
2016-05-25T04:49:02.334Z,87.51
2016-05-25T04:50:02.290Z,86.41
2016-05-25T04:51:02.246Z,84.88
2016-05-25T04:52:02.233Z,84.5
2016-05-25T04:53:02.189Z,83.93
2016-05-25T04:54:02.160Z,83.21
2016-05-25T04:55:02.132Z,82.83
2016-05-25T04:56:02.103Z,82.07
2016-05-25T04:57:02.058Z,81.63
2016-05-25T04:58:02.030Z,80.49
2016-05-25T04:59:02.002Z,80.49
2016-05-25T05:00:01.958Z,79.57
2016-05-25T05:01:01.930Z,78.43
2016-05-25T05:02:01.900Z,77.8
2016-05-25T05:03:01.872Z,76.56
2016-05-25T05:04:01.844Z,75.89
2016-05-25T05:05:01.815Z,75.54
2016-05-25T05:06:01.771Z,74.49
2016-05-25T05:07:01.742Z,74.21
2016-05-25T05:08:01.713Z,73.1
2016-05-25T05:09:01.685Z,72.91
2016-05-25T05:10:01.656Z,72.91
2016-05-25T05:11:01.628Z,72.37
2016-05-25T05:12:01.599Z,71.42
2016-05-25T05:13:02.368Z,71.32
2016-05-25T05:14:02.354Z,70.75
2016-05-25T05:15:02.310Z,70.01
2016-05-25T05:16:02.282Z,68.68
2016-05-25T05:17:02.254Z,67.63
2016-05-25T05:18:02.225Z,66.89
2016-05-25T05:19:02.212Z,66.32
2016-05-25T05:20:01.542Z,65.39
2016-05-25T05:21:02.140Z,64.92
2016-05-25T05:22:02.111Z,63.76
2016-05-25T05:23:02.082Z,64.09
2016-05-25T05:24:01.428Z,63.03
2016-05-25T05:25:02.025Z,62.39
2016-05-25T05:26:02.012Z,61.63
2016-05-25T05:27:01.984Z,61.63
2016-05-25T05:28:01.314Z,60.99
2016-05-25T05:29:01.302Z,59.64
2016-05-25T05:30:01.897Z,57.72
2016-05-25T05:31:01.869Z,56.89
2016-05-25T05:32:02.216Z,55.96
2016-05-25T05:33:01.828Z,55.38
2016-05-25T05:34:01.174Z,54.8
2016-05-25T05:35:01.146Z,54.42
2016-05-25T05:36:01.742Z,54.16
2016-05-25T05:37:01.089Z,53.49
2016-05-25T05:38:01.701Z,52.81
2016-05-25T05:39:01.672Z,52.36
2016-05-25T05:40:01.643Z,51.31
2016-05-25T05:41:01.615Z,50.54
2016-05-25T05:42:01.587Z,50.44
2016-05-25T05:43:01.573Z,49.89
2016-05-25T05:44:01.560Z,49.51
2016-05-25T05:45:01.531Z,49.02
2016-05-25T05:46:03.629Z,47.89
2016-05-25T05:47:00.850Z,47.61
2016-05-25T05:48:01.462Z,46.67
2016-05-25T05:49:00.809Z,45.99
2016-05-25T05:50:01.404Z,45.34
2016-05-25T05:51:01.564Z,44.96
2016-05-25T05:52:00.739Z,43.92
2016-05-25T05:53:00.725Z,43.07
2016-05-25T05:54:01.322Z,42.69
2016-05-25T05:55:00.714Z,42.11
2016-05-25T05:56:01.984Z,41.53
2016-05-25T05:57:00.642Z,41.07
2016-05-25T05:58:00.614Z,40.97
2016-05-25T05:59:01.211Z,40.39
2016-05-25T06:00:01.197Z,39.64
2016-05-25T06:01:01.513Z,40.05
2016-05-25T06:02:01.140Z,38.6
2016-05-25T06:03:01.111Z,38.21
2016-05-25T06:04:01.192Z,37.75
2016-05-25T06:05:01.085Z,37.17
2016-05-25T06:06:02.776Z,36.9
2016-05-25T06:07:01.029Z,36.32
2016-05-25T06:08:01.031Z,36.22
2016-05-25T06:09:00.988Z,35.84
2016-05-25T06:10:00.349Z,35.18
2016-05-25T06:11:00.946Z,34.5
2016-05-25T06:12:00.964Z,33.94
2016-05-25T06:13:00.920Z,34.05
2016-05-25T06:14:00.266Z,33.18
2016-05-25T06:15:00.862Z,32.79
2016-05-25T06:16:00.224Z,32.41
2016-05-25T06:17:00.837Z,31.74
2016-05-25T06:18:00.183Z,31.28
2016-05-25T06:19:00.171Z,30.13
2016-05-25T06:20:00.782Z,29.84
2016-05-25T06:21:00.128Z,29.46
2016-05-25T06:22:00.726Z,28.5
2016-05-25T06:23:00.712Z,27.92
2016-05-25T06:24:00.700Z,27.25
2016-05-25T06:25:00.671Z,27.04
2016-05-25T06:26:00.658Z,26.67
2016-05-25T06:27:00.629Z,26.96
2016-05-25T06:28:00.631Z,26.29
2016-05-25T06:29:00.603Z,25.81
2016-05-25T06:30:00.574Z,25.53
2016-05-25T06:31:00.561Z,25.73
2016-05-25T06:32:00.580Z,25.04
2016-05-25T06:32:59.895Z,25.34
2016-05-25T06:34:00.492Z,25.43
2016-05-25T06:35:00.480Z,24.46
2016-05-25T06:36:00.466Z,24.85
2016-05-25T06:37:00.453Z,25.04
2016-05-25T06:37:59.800Z,26.59
2016-05-25T06:38:59.786Z,27.33
2016-05-25T06:40:00.383Z,27.32
2016-05-25T06:41:00.370Z,27.14
2016-05-25T06:42:00.342Z,26.95
2016-05-25T06:43:00.344Z,26.48
2016-05-25T06:43:59.675Z,25.42
2016-05-25T06:45:00.287Z,24.27
2016-05-25T06:45:59.634Z,24.1
2016-05-25T06:46:59.620Z,22.83
2016-05-25T06:48:00.264Z,22.47
2016-05-25T06:49:00.220Z,21.6
2016-05-25T06:49:59.565Z,21.99
2016-05-25T06:50:59.538Z,22.76
2016-05-25T06:52:00.165Z,23.04
2016-05-25T06:53:00.152Z,22.44
2016-05-25T06:54:00.109Z,22.44
2016-05-25T06:55:00.095Z,22.16
2016-05-25T06:55:59.442Z,23.14
2016-05-25T06:57:00.054Z,23.8
2016-05-25T06:58:00.041Z,24.18
2016-05-25T06:59:00.028Z,24.08
2016-05-25T06:59:59.374Z,24.1
2016-05-25T07:00:59.986Z,22.74
2016-05-25T07:01:59.958Z,22.36
2016-05-25T07:02:59.805Z,21.4
2016-05-25T07:03:59.947Z,21.12
2016-05-25T07:04:59.903Z,21.02
2016-05-25T07:05:59.891Z,20.83
2016-05-25T07:06:59.877Z,20.26
2016-05-25T07:07:59.208Z,19.49
2016-05-25T07:08:59.821Z,18.92
2016-05-25T07:09:59.807Z,18.05
2016-05-25T07:10:59.810Z,17.68
2016-05-25T07:11:59.766Z,16.5
2016-05-25T07:12:59.752Z,16.12
2016-05-25T07:13:59.740Z,17.29
2016-05-25T07:14:59.712Z,17.76
2016-05-25T07:15:59.698Z,17.45
2016-05-25T07:17:00.185Z,17.45
2016-05-25T07:17:59.970Z,17.94
2016-05-25T07:18:59.019Z,18.62
2016-05-25T07:19:59.006Z,19.68
2016-05-25T07:20:59.618Z,19.18
2016-05-25T07:21:59.590Z,18.99
2016-05-25T07:23:00.249Z,18.62
2016-05-25T07:23:59.564Z,17.27
2016-05-25T07:24:59.535Z,17.47
2016-05-25T07:25:59.537Z,16.11
2016-05-25T07:26:59.509Z,16.12
2016-05-25T07:27:59.497Z,16.6
2016-05-25T07:28:58.842Z,17.37
2016-05-25T07:29:58.845Z,17.36
2016-05-25T07:30:59.442Z,17.76
2016-05-25T07:31:59.726Z,17.76
2016-05-25T07:32:58.838Z,17.46
2016-05-25T07:33:58.778Z,16.69
2016-05-25T07:34:59.375Z,16.5
2016-05-25T07:35:59.361Z,16.7
2016-05-25T07:36:58.709Z,16.31
2016-05-25T07:37:59.320Z,15.25
2016-05-25T07:38:58.683Z,15.25
2016-05-25T07:39:59.294Z,15.15
2016-05-25T07:40:59.266Z,15.16
2016-05-25T07:41:59.252Z,15.15
2016-05-25T07:42:59.255Z,15.15
2016-05-25T07:43:59.227Z,15.34
2016-05-25T07:44:59.214Z,15.92
2016-05-25T07:45:59.185Z,15.53
2016-05-25T07:46:59.173Z,15.82
2016-05-25T07:47:59.160Z,15.33
2016-05-25T07:48:59.146Z,15.05
2016-05-25T07:49:59.135Z,14.47
2016-05-25T07:50:59.105Z,14.18
2016-05-25T07:51:59.093Z,14.09
2016-05-25T07:53:00.376Z,14.28
2016-05-25T07:53:59.067Z,13.6
2016-05-25T07:54:58.429Z,12.74
2016-05-25T07:55:59.041Z,13.23
2016-05-25T07:56:59.012Z,12.84
2016-05-25T07:57:58.998Z,11.77
2016-05-25T07:58:58.987Z,11.97
2016-05-25T07:59:58.973Z,12.55
2016-05-25T08:00:58.319Z,12.74
2016-05-25T08:01:59.556Z,12.74
2016-05-25T08:02:58.934Z,12.74
2016-05-25T08:03:58.906Z,11.68
2016-05-25T08:04:58.893Z,11.78
2016-05-25T08:05:58.880Z,12.17
2016-05-25T08:06:58.867Z,11.97
2016-05-25T08:07:58.839Z,11.58
2016-05-25T08:08:58.825Z,11.19
2016-05-25T08:09:58.219Z,11.1
2016-05-25T08:10:58.800Z,10.22
2016-05-25T08:11:58.787Z,9.83
2016-05-25T08:12:58.774Z,8.86
2016-05-25T08:13:58.776Z,9.06
2016-05-25T08:14:58.748Z,9.65
2016-05-25T08:15:58.735Z,10.13
2016-05-25T08:16:58.707Z,9.84
2016-05-25T08:17:58.085Z,9.74
2016-05-25T08:18:58.680Z,9.93
2016-05-25T08:19:58.043Z,9.83
2016-05-25T08:20:58.030Z,9.15
2016-05-25T08:21:58.017Z,8.37
2016-05-25T08:22:58.629Z,7.59
2016-05-25T08:23:58.616Z,7.4
2016-05-25T08:24:58.603Z,7.4
2016-05-25T08:25:58.590Z,7.1
2016-05-25T08:26:58.576Z,7.3
2016-05-25T08:27:58.564Z,7.59
2016-05-25T08:28:58.536Z,7.2
2016-05-25T08:29:58.539Z,8.18
2016-05-25T08:30:58.525Z,8.47
2016-05-25T08:31:58.512Z,8.95
2016-05-25T08:32:58.500Z,8.76
2016-05-25T08:33:58.471Z,9.15
2016-05-25T08:34:58.473Z,9.25
2016-05-25T08:35:58.461Z,9.34
2016-05-25T08:36:58.447Z,10.12
2016-05-25T08:37:58.826Z,9.33
2016-05-25T08:38:57.781Z,10.02
2016-05-25T08:39:58.425Z,10.51
2016-05-25T08:40:58.380Z,10.6
2016-05-25T08:41:58.399Z,10.79
2016-05-25T08:42:58.355Z,10.99
2016-05-25T08:43:58.357Z,10.69
2016-05-25T08:44:58.329Z,10.5
2016-05-25T08:45:58.332Z,10.41
2016-05-25T08:46:58.318Z,10.6
2016-05-25T08:47:58.305Z,9.93
2016-05-25T08:48:57.652Z,9.14
2016-05-25T08:49:58.263Z,8.57
2016-05-25T08:50:57.782Z,7.79
2016-05-25T08:51:58.238Z,7.21
2016-05-25T08:52:58.382Z,6.33
2016-05-25T08:53:58.212Z,5.74
2016-05-25T08:54:58.199Z,5.94
2016-05-25T08:55:58.187Z,5.94
2016-05-25T08:56:58.173Z,5.74
2016-05-25T08:57:58.176Z,6.32
2016-05-25T08:58:58.163Z,6.22
2016-05-25T08:59:58.151Z,6.02
2016-05-25T09:00:58.137Z,5.73
2016-05-25T09:01:58.125Z,5.24
2016-05-25T09:02:58.112Z,5.25
2016-05-25T09:03:58.145Z,4.75
2016-05-25T09:04:58.085Z,5.25
2016-05-25T09:05:58.073Z,5.24
2016-05-25T09:06:58.106Z,5.04
2016-05-25T09:07:58.062Z,4.65
2016-05-25T09:08:58.050Z,4.25
2016-05-25T09:09:58.067Z,4.16
2016-05-25T09:10:58.008Z,5.14
2016-05-25T09:11:57.386Z,5.04
2016-05-25T09:12:57.592Z,4.84
2016-05-25T09:13:57.985Z,4.45
2016-05-25T09:14:57.972Z,4.64
2016-05-25T09:15:57.975Z,5.14
2016-05-25T09:16:57.962Z,4.94
2016-05-25T09:17:59.760Z,5.14
2016-05-25T09:18:57.936Z,5.14
2016-05-25T09:19:57.938Z,5.82
2016-05-25T09:20:57.926Z,5.33
2016-05-25T09:21:57.897Z,5.04
2016-05-25T09:22:57.916Z,4.16
2016-05-25T09:23:57.871Z,4.26
2016-05-25T09:24:57.874Z,4.85
2016-05-25T09:25:57.860Z,6.24
2016-05-25T09:26:57.223Z,7.11
2016-05-25T09:27:57.834Z,7.5
2016-05-25T09:28:57.837Z,7.1
2016-05-25T09:29:57.856Z,7.1
2016-05-25T09:30:57.796Z,6.81
2016-05-25T09:31:58.393Z,5.73
2016-05-25T09:32:57.161Z,5.94
2016-05-25T09:33:57.773Z,5.15
2016-05-25T09:34:57.760Z,4.85
2016-05-25T09:35:57.747Z,4.96
2016-05-25T09:36:57.734Z,4.37
2016-05-25T09:38:01.533Z,3.88
2016-05-25T09:38:57.725Z,3.67
2016-05-25T09:39:57.727Z,3.68
2016-05-25T09:40:57.072Z,3.38
2016-05-25T09:41:57.045Z,2.78
2016-05-25T09:42:59.220Z,2.98
2016-05-25T09:43:57.659Z,2.49
2016-05-25T09:44:57.661Z,2.39
2016-05-25T09:45:57.649Z,2.59
2016-05-25T09:46:57.652Z,2.69
2016-05-25T09:47:59.764Z,2.09
2016-05-25T09:48:56.985Z,2.29
2016-05-25T09:49:57.613Z,2.98
2016-05-25T09:50:57.600Z,3.47
2016-05-25T09:51:57.587Z,4.17
2016-05-25T09:52:57.574Z,3.57
2016-05-25T09:53:57.577Z,3.28
2016-05-25T09:54:57.563Z,3.38
2016-05-25T09:55:56.910Z,3.58
2016-05-25T09:56:56.928Z,4.17
2016-05-25T09:57:58.307Z,4.75
2016-05-25T09:58:56.887Z,5.54
2016-05-25T09:59:57.608Z,6.03
2016-05-25T10:00:57.501Z,6.12
2016-05-25T10:01:57.489Z,6.32
2016-05-25T10:02:57.476Z,6.62
2016-05-25T10:03:57.494Z,5.64
2016-05-25T10:04:57.465Z,5.83
2016-05-25T10:05:57.468Z,6.13
2016-05-25T10:06:56.814Z,6.23
2016-05-25T10:07:58.848Z,8.09
2016-05-25T10:08:57.445Z,8.37
2016-05-25T10:09:57.495Z,8.96
2016-05-25T10:10:57.388Z,8.86
2016-05-25T10:11:57.375Z,9.54
2016-05-25T10:12:57.362Z,9.34
2016-05-25T10:13:57.349Z,10.02
2016-05-25T10:14:57.336Z,9.72
2016-05-25T10:15:57.324Z,10.11
2016-05-25T10:16:57.327Z,10.41
2016-05-25T10:17:56.705Z,9.81
2016-05-25T10:18:57.285Z,9.24
2016-05-25T10:19:57.334Z,8.76
2016-05-25T10:20:56.633Z,7.88
2016-05-25T10:21:57.261Z,7.49
2016-05-25T10:22:57.233Z,7.59
2016-05-25T10:23:57.220Z,7.2
2016-05-25T10:24:56.583Z,7.2
2016-05-25T10:25:59.757Z,7.59
2016-05-25T10:26:57.181Z,7.59
2016-05-25T10:27:57.169Z,7.68
2016-05-25T10:28:57.155Z,7.48
2016-05-25T10:29:57.204Z,7.39
2016-05-25T10:30:57.129Z,7.1
2016-05-25T10:31:57.117Z,6.51
2016-05-25T10:32:57.104Z,6.22
2016-05-25T10:33:57.090Z,6.62
2016-05-25T10:34:57.296Z,6.02
2016-05-25T10:35:56.549Z,6.02
2016-05-25T10:36:56.442Z,6.62
2016-05-25T10:37:56.461Z,6.62
2016-05-25T10:38:57.026Z,6.51
2016-05-25T10:39:57.106Z,7.21
2016-05-25T10:40:58.922Z,7.69
2016-05-25T10:41:57.003Z,7.98
2016-05-25T10:42:56.990Z,7.98
2016-05-25T10:43:56.977Z,7.29
2016-05-25T10:44:56.963Z,7.01
2016-05-25T10:45:56.966Z,7.1
2016-05-25T10:46:56.313Z,8.48
2016-05-25T10:47:56.753Z,8.58
2016-05-25T10:48:56.991Z,8.37
2016-05-25T10:49:56.993Z,7.98
2016-05-25T10:50:56.886Z,7.98
2016-05-25T10:51:56.874Z,7.79
2016-05-25T10:52:56.877Z,7.89
2016-05-25T10:53:56.879Z,8.28
2016-05-25T10:54:56.210Z,8.87
2016-05-25T10:55:56.197Z,9.35
2016-05-25T10:56:56.824Z,10.24
2016-05-25T10:57:56.796Z,10.72
2016-05-25T10:58:56.157Z,11.4
2016-05-25T10:59:56.145Z,11.69
2016-05-25T11:00:56.757Z,11.98
2016-05-25T11:01:56.743Z,12.95
2016-05-25T11:02:56.747Z,13.71
2016-05-25T11:03:56.703Z,14.97
2016-05-25T11:04:56.706Z,15.34
2016-05-25T11:05:56.677Z,15.92
2016-05-25T11:06:56.023Z,17.37
2016-05-25T11:07:56.635Z,17.85
2016-05-25T11:08:56.622Z,18.52
2016-05-25T11:09:56.609Z,18.62
2016-05-25T11:10:56.612Z,19.11
2016-05-25T11:11:56.568Z,19.39
2016-05-25T11:12:56.555Z,19.88
2016-05-25T11:13:55.916Z,20.36
2016-05-25T11:14:56.528Z,20.94
2016-05-25T11:15:56.516Z,21.12
2016-05-25T11:16:55.847Z,21.59
2016-05-25T11:17:56.569Z,22.74
2016-05-25T11:18:56.447Z,24.55
2016-05-25T11:19:56.433Z,27.53
2016-05-25T11:20:56.419Z,29.03
2016-05-25T11:21:56.408Z,31.81
2016-05-25T11:22:56.363Z,33.31
